Time;durP1;ratioP1;P1;durP2;ratioP2;P2;SDS_P1;SDS_P2;PMS_P1;PMS_P2;Temp;Humidity;BMP_temperature;BMP_pressure;BME280_temperature;BME280_humidity;BME280_pressure;Samples;Min_cycle;Max_cycle;Signal;HPM_P1;HPM_P2
2021/10/30 00:00:55;;;;;;;5.25;3.65;;;;;;;10.98;68.73;100815.94;5027689;28;20072;-78
2021/10/30 00:03:21;;;;;;;8.23;4.32;;;;;;;10.98;68.61;100811.63;5028195;28;20045;-79
2021/10/30 00:05:48;;;;;;;5.97;3.75;;;;;;;10.95;68.78;100808.13;5026276;28;20065;-77
2021/10/30 00:08:15;;;;;;;7.50;4.22;;;;;;;10.79;68.13;100770.72;5028718;28;20045;-79
2021/10/30 00:10:44;;;;;;;10.15;4.05;;;;;;;10.98;68.63;100811.63;5026646;28;20048;-76
2021/10/30 00:13:10;;;;;;;8.80;4.53;;;;;;;10.95;68.22;100810.72;5026533;28;20048;-78
2021/10/30 00:15:40;;;;;;;5.43;3.58;;;;;;;10.98;67.94;100805.53;5027294;28;20104;-76
2021/10/30 00:18:08;;;;;;;5.22;3.70;;;;;;;10.98;67.86;100811.63;5014844;28;20041;-79
2021/10/30 00:20:34;;;;;;;6.05;3.78;;;;;;;10.69;67.93;100782.81;5027031;28;20051;-79
2021/10/30 00:23:14;;;;;;;5.85;3.75;;;;;;;10.85;67.72;100808.06;5030000;28;20056;-79
2021/10/30 00:25:53;;;;;;;6.78;3.78;;;;;;;10.81;67.77;100793.28;5029673;28;20042;-77
2021/10/30 00:28:24;;;;;;;5.88;3.63;;;;;;;10.71;67.75;100773.25;5027386;28;20433;-77
2021/10/30 00:30:59;;;;;;;6.38;3.92;;;;;;;10.85;67.63;100799.38;5016131;28;20107;-76
2021/10/30 00:33:25;;;;;;;5.57;4.10;;;;;;;10.81;67.61;100801.09;5026057;28;20072;-77
2021/10/30 00:35:51;;;;;;;7.45;4.30;;;;;;;10.77;67.52;100801.94;5026576;28;20098;-78
2021/10/30 00:38:16;;;;;;;7.38;4.60;;;;;;;10.91;67.44;100820.25;4998003;28;20041;-79
2021/10/30 00:40:42;;;;;;;7.47;4.40;;;;;;;10.90;67.25;100808.09;5027470;28;20038;-79
2021/10/30 00:43:08;;;;;;;8.02;4.40;;;;;;;10.85;67.33;100799.38;5024729;28;20049;-79
2021/10/30 00:45:35;;;;;;;6.85;4.75;;;;;;;10.87;67.46;100791.59;5027465;28;20037;-76
2021/10/30 00:48:00;;;;;;;6.80;4.18;;;;;;;11.02;67.18;100802.09;5006109;28;20060;-75
2021/10/30 00:50:26;;;;;;;5.82;4.03;;;;;;;10.94;66.79;100795.94;5026087;28;20178;-78
2021/10/30 00:52:54;;;;;;;7.70;4.20;;;;;;;10.90;67.12;100808.09;5026853;28;20041;-77
2021/10/30 00:55:23;;;;;;;10.02;4.65;;;;;;;10.99;67.15;100808.16;5026245;28;20131;-76
2021/10/30 00:57:50;;;;;;;8.27;4.40;;;;;;;11.09;67.01;100814.28;5028462;28;20088;-77
2021/10/30 01:00:16;;;;;;;8.13;4.40;;;;;;;10.95;66.91;100792.50;5024368;28;20037;-78
2021/10/30 01:02:42;;;;;;;6.80;4.60;;;;;;;10.98;66.44;100798.59;5030301;28;20042;-77
2021/10/30 01:05:08;;;;;;;8.18;4.78;;;;;;;10.98;66.79;100811.63;5030089;28;20086;-80
2021/10/30 01:07:34;;;;;;;7.82;5.05;;;;;;;10.99;66.85;100809.88;5024033;28;20046;-79
2021/10/30 01:10:00;;;;;;;8.32;4.88;;;;;;;11.01;66.98;100821.19;5024885;28;20038;-77
2021/10/30 01:12:26;;;;;;;7.53;4.32;;;;;;;10.83;66.64;100791.56;5026314;28;20068;-78
2021/10/30 01:14:54;;;;;;;8.50;4.53;;;;;;;11.05;66.46;100812.53;5026606;28;20133;-81
2021/10/30 01:17:20;;;;;;;6.15;3.85;;;;;;;10.99;66.25;100802.06;5030603;28;20060;-78
2021/10/30 01:19:50;;;;;;;6.15;4.20;;;;;;;10.70;66.29;100767.19;5027515;28;20033;-76
2021/10/30 01:22:16;;;;;;;7.93;4.20;;;;;;;10.92;66.47;100805.53;5027238;28;20045;-77
2021/10/30 01:24:42;;;;;;;7.55;4.28;;;;;;;10.94;66.27;100806.38;5024360;28;20037;-77
2021/10/30 01:27:08;;;;;;;9.85;4.70;;;;;;;10.89;66.55;100802.91;5011752;28;20088;-76
2021/10/30 01:29:34;;;;;;;9.07;5.35;;;;;;;10.97;66.35;100815.09;5025888;28;20145;-78
2021/10/30 01:31:59;;;;;;;8.30;5.20;;;;;;;10.85;66.30;100801.97;5024447;28;20346;-75
2021/10/30 01:34:27;;;;;;;9.23;5.07;;;;;;;10.90;66.21;100804.63;5014380;28;20033;-77
2021/10/30 01:36:54;;;;;;;7.90;4.75;;;;;;;10.98;66.57;100806.41;5028054;28;20053;-78
2021/10/30 01:39:22;;;;;;;9.75;5.00;;;;;;;10.99;66.36;100804.66;5026315;28;20160;-78
2021/10/30 01:42:01;;;;;;;9.13;5.15;;;;;;;11.11;66.23;100822.09;5024586;28;20045;-76
2021/10/30 01:44:27;;;;;;;8.20;5.07;;;;;;;11.08;66.20;100822.97;5025319;28;20041;-78
2021/10/30 01:47:00;;;;;;;7.15;4.38;;;;;;;11.19;66.55;100824.72;5012413;28;20467;-78
2021/10/30 01:49:29;;;;;;;8.98;4.85;;;;;;;11.08;65.71;100811.66;5008238;28;20037;-79
2021/10/30 01:51:55;;;;;;;8.25;4.75;;;;;;;11.16;65.90;100823.00;5024999;28;20164;-78
2021/10/30 01:54:22;;;;;;;10.90;4.80;;;;;;;10.78;65.43;100780.25;5021783;28;20042;-79
2021/10/30 01:56:48;;;;;;;8.38;4.35;;;;;;;11.01;65.77;100826.38;5009408;28;20064;-79
2021/10/30 01:59:14;;;;;;;8.23;4.70;;;;;;;10.84;66.31;100793.31;5025768;28;20069;-77
2021/10/30 02:01:40;;;;;;;10.48;4.90;;;;;;;11.11;66.12;100830.81;5021248;28;20103;-78
2021/10/30 02:04:05;;;;;;;9.60;4.90;;;;;;;11.15;65.97;100842.94;5027642;28;20033;-77
2021/10/30 02:06:31;;;;;;;7.43;4.78;;;;;;;11.14;65.98;100841.22;5023252;28;20052;-76
2021/10/30 02:08:57;;;;;;;8.35;5.00;;;;;;;11.26;65.97;100842.16;5008340;28;20088;-79
2021/10/30 02:11:23;;;;;;;7.80;4.70;;;;;;;11.33;65.87;100849.16;5023014;28;20094;-79
2021/10/30 02:13:50;;;;;;;9.63;5.20;;;;;;;11.36;65.25;100849.16;5026268;28;20068;-78
2021/10/30 02:16:16;;;;;;;6.57;4.45;;;;;;;11.37;65.82;100850.00;5021956;28;20088;-77
2021/10/30 02:18:42;;;;;;;6.53;4.38;;;;;;;11.33;65.29;100845.66;5012178;28;20037;-76
2021/10/30 02:21:07;;;;;;;6.32;4.07;;;;;;;11.24;65.80;100823.91;5028448;28;20424;-79
2021/10/30 02:23:33;;;;;;;6.88;4.18;;;;;;;11.21;65.18;100818.69;5026084;28;20045;-77
2021/10/30 02:25:59;;;;;;;6.97;3.95;;;;;;;11.36;65.41;100832.63;5025680;28;20136;-77
2021/10/30 02:28:25;;;;;;;7.60;4.20;;;;;;;11.45;65.46;100843.13;5026062;28;20549;-78
2021/10/30 02:30:51;;;;;;;7.63;4.30;;;;;;;11.39;65.45;100828.31;5010729;28;20046;-77
2021/10/30 02:33:16;;;;;;;8.60;4.82;;;;;;;11.36;65.14;100817.00;5026691;28;20041;-77
2021/10/30 02:35:42;;;;;;;8.48;5.35;;;;;;;11.29;65.10;100821.31;5014629;28;20462;-79
2021/10/30 02:38:08;;;;;;;6.30;4.20;;;;;;;11.36;64.77;100833.53;5026186;28;20076;-78
2021/10/30 02:40:34;;;;;;;6.95;4.45;;;;;;;11.08;64.95;100803.84;5024169;28;20034;-78
2021/10/30 02:43:02;;;;;;;6.60;4.35;;;;;;;11.32;65.22;100846.50;5008987;28;20045;-78
2021/10/30 02:45:27;;;;;;;7.47;4.57;;;;;;;11.09;65.13;100816.91;5033133;28;20041;-78
2021/10/30 02:47:53;;;;;;;6.82;4.47;;;;;;;11.32;65.29;100847.41;5030787;28;20105;-75
2021/10/30 02:50:19;;;;;;;6.13;4.22;;;;;;;11.39;65.55;100845.69;5028165;28;20052;-78
2021/10/30 02:52:45;;;;;;;8.07;5.18;;;;;;;11.44;65.01;100847.44;5029766;28;20124;-77
2021/10/30 02:55:11;;;;;;;7.68;4.53;;;;;;;11.22;64.75;100809.13;5022807;28;20046;-78
2021/10/30 02:57:37;;;;;;;6.28;4.50;;;;;;;11.32;64.83;100836.97;5029331;28;20041;-78
2021/10/30 03:00:06;;;;;;;8.05;4.55;;;;;;;11.34;64.79;100850.88;5023248;28;20041;-79
2021/10/30 03:02:32;;;;;;;6.40;4.13;;;;;;;11.38;64.76;100860.44;5006484;28;20879;-79
2021/10/30 03:04:58;;;;;;;7.55;4.65;;;;;;;11.41;64.69;100863.06;5022595;28;20060;-79
2021/10/30 03:07:24;;;;;;;6.45;4.40;;;;;;;11.45;64.88;100863.97;5024162;28;20513;-79
2021/10/30 03:09:51;;;;;;;5.55;4.22;;;;;;;11.33;64.57;100850.88;5028337;28;20037;-80
2021/10/30 03:12:18;;;;;;;8.75;4.20;;;;;;;11.33;64.71;100849.16;5024739;28;20565;-79
2021/10/30 03:14:44;;;;;;;5.28;4.28;;;;;;;11.45;64.44;100864.81;5029969;28;20053;-78
2021/10/30 03:17:10;;;;;;;6.22;4.45;;;;;;;11.50;64.94;100869.19;5010924;28;20040;-77
2021/10/30 03:19:36;;;;;;;5.40;4.20;;;;;;;11.49;64.44;100870.06;5025888;28;20041;-77
2021/10/30 03:22:03;;;;;;;7.20;4.38;;;;;;;11.45;64.68;100872.63;5026400;28;20141;-79
2021/10/30 03:24:28;;;;;;;6.32;3.95;;;;;;;11.37;64.57;100861.28;5023291;28;20135;-79
2021/10/30 03:26:54;;;;;;;6.55;3.65;;;;;;;11.36;64.72;100870.00;5028577;28;20200;-79
2021/10/30 03:29:20;;;;;;;6.32;4.13;;;;;;;11.47;64.61;100888.31;5023012;28;20493;-76
2021/10/30 03:31:45;;;;;;;5.70;4.03;;;;;;;11.43;64.03;100876.97;5022869;28;20049;-76
2021/10/30 03:34:11;;;;;;;5.22;4.05;;;;;;;11.56;64.60;100885.72;5029530;28;20053;-78
2021/10/30 03:36:39;;;;;;;5.18;3.75;;;;;;;11.63;64.59;100889.22;5022983;28;20505;-75
2021/10/30 03:39:05;;;;;;;6.65;4.03;;;;;;;11.69;64.22;100884.03;5028431;28;20382;-77
2021/10/30 03:41:33;;;;;;;7.47;3.80;;;;;;;11.71;64.38;100882.31;5024312;28;20053;-79
2021/10/30 03:43:58;;;;;;;4.80;3.80;;;;;;;11.69;64.05;100873.59;5019918;28;20045;-78
2021/10/30 03:46:24;;;;;;;6.55;4.50;;;;;;;11.75;64.25;100881.47;5029357;28;20512;-78
2021/10/30 03:48:50;;;;;;;6.25;4.47;;;;;;;11.77;63.85;100885.81;5027005;28;20060;-77
2021/10/30 03:51:15;;;;;;;7.00;4.40;;;;;;;11.67;63.68;100862.31;5026213;28;20509;-78
2021/10/30 03:53:41;;;;;;;7.63;4.45;;;;;;;11.65;63.76;100871.84;5032738;28;20052;-77
2021/10/30 03:56:07;;;;;;;5.85;4.55;;;;;;;11.58;63.90;100860.53;5031603;28;20165;-75
2021/10/30 03:58:34;;;;;;;11.48;5.25;;;;;;;11.49;63.73;100854.41;5027189;28;20037;-75
2021/10/30 04:00:59;;;;;;;11.43;5.15;;;;;;;11.53;63.76;100858.78;5025302;28;20545;-78
2021/10/30 04:03:25;;;;;;;6.65;4.93;;;;;;;11.64;63.89;100872.72;5014616;28;20044;-78
2021/10/30 04:05:51;;;;;;;12.63;5.30;;;;;;;11.59;63.59;100871.81;5027393;28;20053;-77
2021/10/30 04:08:19;;;;;;;11.13;5.47;;;;;;;11.45;63.62;100851.78;5014485;28;20083;-77
2021/10/30 04:10:46;;;;;;;10.95;5.35;;;;;;;11.56;63.97;100872.69;5028111;28;20111;-78
2021/10/30 04:13:12;;;;;;;9.35;4.50;;;;;;;11.60;63.56;100882.28;5027310;28;20041;-77
2021/10/30 04:15:39;;;;;;;7.85;4.55;;;;;;;11.61;63.61;100872.69;5033653;28;20050;-79
2021/10/30 04:18:04;;;;;;;10.13;4.57;;;;;;;11.66;63.73;100873.59;5023975;28;20505;-78
2021/10/30 04:20:30;;;;;;;11.45;4.28;;;;;;;11.56;63.54;100859.66;5027328;28;20037;-78
2021/10/30 04:22:56;;;;;;;5.97;3.55;;;;;;;11.57;63.66;100856.19;5010494;28;20046;-77
2021/10/30 04:25:21;;;;;;;7.53;3.38;;;;;;;11.67;63.52;100870.13;5011118;28;20048;-79
2021/10/30 04:27:47;;;;;;;5.63;3.60;;;;;;;11.57;63.92;100857.94;5028879;28;20212;-77
2021/10/30 04:30:14;;;;;;;5.28;3.75;;;;;;;11.65;63.58;100865.78;5012710;28;20421;-78
2021/10/30 04:32:42;;;;;;;5.30;3.55;;;;;;;11.60;63.24;100856.19;5029789;28;20045;-79
2021/10/30 04:35:09;;;;;;;5.97;3.60;;;;;;;11.68;63.62;100856.22;5033629;28;20041;-78
2021/10/30 04:37:35;;;;;;;6.03;3.63;;;;;;;11.67;63.42;100851.88;5011457;28;20053;-77
2021/10/30 04:40:02;;;;;;;4.82;3.10;;;;;;;11.66;63.74;100846.66;5027894;28;20090;-78
2021/10/30 04:42:29;;;;;;;4.00;3.28;;;;;;;11.63;63.54;100842.28;5029636;28;20045;-76
2021/10/30 04:44:55;;;;;;;7.97;3.88;;;;;;;11.71;63.63;100855.34;5008973;28;20033;-78
2021/10/30 04:47:22;;;;;;;6.63;3.40;;;;;;;11.70;63.12;100854.50;5013048;28;20048;-79
2021/10/30 04:49:48;;;;;;;7.55;3.67;;;;;;;11.64;63.07;100845.78;5026339;28;20535;-77
2021/10/30 04:52:15;;;;;;;7.80;4.15;;;;;;;11.70;63.64;100854.50;5013300;28;20045;-81
2021/10/30 04:54:41;;;;;;;7.55;4.00;;;;;;;11.68;63.47;100856.22;5029267;28;20132;-78
2021/10/30 04:57:07;;;;;;;7.53;3.50;;;;;;;11.52;63.39;100820.53;5028619;28;20135;-77
2021/10/30 04:59:33;;;;;;;8.43;3.55;;;;;;;11.48;63.54;100817.03;5024327;28;20446;-79
2021/10/30 05:02:00;;;;;;;8.43;4.22;;;;;;;11.59;63.33;100845.75;5007219;28;20087;-80
2021/10/30 05:04:26;;;;;;;9.52;3.95;;;;;;;11.62;63.20;100850.13;5030894;28;20179;-77
2021/10/30 05:06:51;;;;;;;8.95;4.05;;;;;;;11.60;63.54;100852.72;5025998;28;20124;-81
2021/10/30 05:09:18;;;;;;;7.80;4.38;;;;;;;11.68;63.42;100852.75;5029536;28;20045;-79
2021/10/30 05:11:43;;;;;;;11.77;4.30;;;;;;;11.73;63.66;100851.91;5025440;28;20098;-80
2021/10/30 05:14:09;;;;;;;11.13;4.60;;;;;;;11.89;63.49;100849.31;5029530;28;20227;-79
2021/10/30 05:16:35;;;;;;;6.10;4.35;;;;;;;11.96;63.34;100838.06;5028292;28;20117;-79
2021/10/30 05:19:01;;;;;;;10.40;4.75;;;;;;;12.18;63.09;100845.94;5027664;28;20045;-80
2021/10/30 05:21:27;;;;;;;7.28;4.00;;;;;;;12.44;62.66;100819.84;5030641;28;20038;-80
2021/10/30 05:23:56;;;;;;;10.30;4.18;;;;;;;12.67;62.28;100828.56;5025992;28;20094;-80
2021/10/30 05:26:23;;;;;;;8.55;4.35;;;;;;;13.22;62.36;100849.31;5027070;28;20037;-82
2021/10/30 05:28:53;;;;;;;9.85;4.00;;;;;;;14.35;62.46;100840.00;5025100;28;20115;-77
2021/10/30 05:31:22;;;;;;;9.00;4.30;;;;;;;14.73;60.45;100820.50;5009007;28;20049;-79
2021/10/30 05:33:48;;;;;;;7.95;3.92;;;;;;;14.61;59.34;100838.94;5031047;28;20076;-79
2021/10/30 05:36:31;;;;;;;8.50;4.28;;;;;;;13.88;59.05;100820.28;5028442;28;20041;-81
2021/10/30 05:39:13;;;;;;;8.43;3.97;;;;;;;13.70;59.05;100843.91;5024065;28;20041;-80
2021/10/30 05:41:40;;;;;;;5.93;3.85;;;;;;;13.35;58.80;100829.22;5025050;28;20034;-78
2021/10/30 05:44:06;;;;;;;8.90;4.07;;;;;;;13.30;59.56;100845.81;5013844;28;20045;-77
2021/10/30 05:46:34;;;;;;;7.53;4.40;;;;;;;13.95;59.57;100840.31;5012762;28;20030;-80
2021/10/30 05:49:03;;;;;;;7.60;4.03;;;;;;;15.22;58.74;100844.44;5032467;28;20104;-80
2021/10/30 05:51:30;;;;;;;6.72;3.80;;;;;;;16.48;57.93;100830.44;5025560;28;20052;-79
2021/10/30 05:53:56;;;;;;;8.25;3.63;;;;;;;17.40;55.64;100800.69;5024851;28;20056;-79
2021/10/30 05:56:27;;;;;;;7.10;3.78;;;;;;;18.61;53.99;100832.13;5027059;28;20038;-79
2021/10/30 05:58:55;;;;;;;8.50;4.35;;;;;;;19.13;51.55;100812.34;5028790;28;20793;-78
2021/10/30 06:01:22;;;;;;;10.63;4.30;;;;;;;19.98;50.92;100830.91;5032411;28;20037;-79
2021/10/30 06:04:02;;;;;;;6.53;3.72;;;;;;;20.74;48.32;100815.22;5027914;28;20049;-78
2021/10/30 06:06:27;;;;;;;7.85;3.92;;;;;;;21.32;47.05;100829.91;5026688;28;20045;-77
2021/10/30 06:08:56;;;;;;;10.80;4.20;;;;;;;21.83;46.16;100798.84;5014894;28;20036;-76
2021/10/30 06:11:22;;;;;;;5.28;3.53;;;;;;;22.27;43.02;100801.44;5023359;28;20144;-76
2021/10/30 06:13:48;;;;;;;5.47;3.92;;;;;;;22.51;41.77;100811.97;5013889;28;20568;-77
2021/10/30 06:16:14;;;;;;;6.85;3.80;;;;;;;22.99;42.27;100811.69;5028559;28;20681;-77
2021/10/30 06:18:39;;;;;;;6.30;3.70;;;;;;;23.38;41.26;100815.28;5025163;28;20046;-77
2021/10/30 06:21:05;;;;;;;6.40;4.10;;;;;;;23.98;40.06;100817.75;5030799;28;20029;-77
2021/10/30 06:23:31;;;;;;;6.20;3.88;;;;;;;24.40;38.79;100809.47;5035226;28;20121;-76
2021/10/30 06:25:57;;;;;;;7.25;3.85;;;;;;;24.99;36.95;100802.00;5023113;28;20038;-77
2021/10/30 06:28:25;;;;;;;8.35;3.92;;;;;;;24.95;36.20;100784.47;5024446;28;20516;-79
2021/10/30 06:30:51;;;;;;;6.78;4.35;;;;;;;25.40;36.30;100776.72;5020158;28;20049;-77
2021/10/30 06:33:16;;;;;;;6.80;4.40;;;;;;;25.70;35.09;100776.84;5023224;28;20100;-77
2021/10/30 06:35:45;;;;;;;5.55;4.55;;;;;;;25.92;34.36;100777.41;5022637;28;20045;-78
2021/10/30 06:38:12;;;;;;;8.30;4.07;;;;;;;26.43;33.98;100785.97;5027625;28;20076;-77
2021/10/30 06:40:49;;;;;;;8.50;4.43;;;;;;;26.63;32.75;100765.22;5013828;28;20045;-81
2021/10/30 06:43:15;;;;;;;7.13;3.97;;;;;;;26.64;32.58;100764.25;5011028;28;20150;-75
2021/10/30 06:45:43;;;;;;;7.88;4.35;;;;;;;27.17;32.36;100795.75;5011024;28;20065;-76
2021/10/30 06:48:09;;;;;;;9.82;4.40;;;;;;;27.51;31.28;100798.97;5026063;28;20069;-76
2021/10/30 06:50:35;;;;;;;9.57;4.20;;;;;;;27.40;30.98;100788.09;5045558;28;20057;-79
2021/10/30 06:53:00;;;;;;;8.40;4.57;;;;;;;26.99;31.59;100768.41;5030171;28;20046;-76
2021/10/30 06:55:31;;;;;;;7.78;4.60;;;;;;;27.26;30.83;100778.28;5010200;28;20131;-75
2021/10/30 06:58:00;;;;;;;5.03;4.05;;;;;;;27.21;31.09;100803.47;5025376;28;20061;-78
2021/10/30 07:00:26;;;;;;;7.22;5.05;;;;;;;27.70;30.60;100809.34;5026367;28;20030;-77
2021/10/30 07:02:52;;;;;;;6.72;4.25;;;;;;;28.10;29.74;100803.16;5021717;28;20528;-79
2021/10/30 07:05:20;;;;;;;8.77;4.10;;;;;;;27.89;29.76;100797.41;5023121;28;20611;-79
2021/10/30 07:07:46;;;;;;;8.02;4.97;;;;;;;28.13;29.25;100783.41;5026205;28;20105;-75
2021/10/30 07:10:13;;;;;;;7.95;4.60;;;;;;;27.59;29.03;100785.09;4993796;28;20056;-77
2021/10/30 07:12:38;;;;;;;5.93;4.50;;;;;;;27.69;29.75;100798.75;5025988;28;20184;-78
2021/10/30 07:15:07;;;;;;;6.38;4.80;;;;;;;27.87;29.21;100802.00;5026224;28;20471;-78
2021/10/30 07:17:39;;;;;;;7.85;4.97;;;;;;;28.35;29.18;100788.16;5016417;28;20504;-80
2021/10/30 07:20:06;;;;;;;6.97;5.00;;;;;;;28.32;28.61;100805.25;5014969;28;20036;-79
2021/10/30 07:23:01;;;;;;;9.75;4.82;;;;;;;28.46;28.81;100815.03;5031161;28;20067;-75
2021/10/30 07:25:30;;;;;;;6.05;4.90;;;;;;;28.71;28.17;100813.34;5030531;28;20049;-77
2021/10/30 07:27:58;;;;;;;6.95;4.65;;;;;;;28.96;27.84;100795.59;5028230;28;20095;-77
2021/10/30 07:30:26;;;;;;;8.50;4.43;;;;;;;28.62;27.75;100808.63;5000385;28;20053;-79
2021/10/30 07:32:53;;;;;;;7.90;5.00;;;;;;;27.83;27.90;100812.06;5016432;28;20440;-76
2021/10/30 07:35:25;;;;;;;6.05;4.75;;;;;;;25.78;29.07;100804.88;5014573;28;20033;-75
2021/10/30 07:37:57;;;;;;;6.50;5.15;;;;;;;24.62;31.97;100807.44;5024717;28;20697;-76
2021/10/30 07:40:23;;;;;;;5.97;5.30;;;;;;;24.65;31.80;100812.59;5025006;28;20029;-80
2021/10/30 07:42:51;;;;;;;7.35;5.03;;;;;;;24.21;32.58;100751.94;5027530;28;20057;-78
2021/10/30 07:45:20;;;;;;;7.78;5.43;;;;;;;24.37;32.33;100810.50;5026525;28;20383;-76
2021/10/30 07:47:48;;;;;;;9.10;5.47;;;;;;;22.98;32.60;100817.91;5013739;28;20093;-76
2021/10/30 07:50:16;;;;;;;9.13;6.68;;;;;;;21.41;35.26;100824.25;5027590;28;20042;-78
2021/10/30 07:52:43;;;;;;;8.85;6.05;;;;;;;20.83;36.70;100837.84;5029030;28;20571;-79
2021/10/30 07:55:09;;;;;;;8.75;5.85;;;;;;;21.43;37.49;100832.16;5021820;28;20045;-78
2021/10/30 07:57:36;;;;;;;13.13;6.05;;;;;;;21.20;37.18;100839.16;5027491;28;20520;-77
2021/10/30 08:00:05;;;;;;;11.57;5.82;;;;;;;20.90;37.39;100836.69;5013378;28;20187;-75
2021/10/30 08:02:42;;;;;;;10.57;5.88;;;;;;;21.20;38.39;100829.44;5025502;28;20178;-78
2021/10/30 08:05:09;;;;;;;8.25;6.15;;;;;;;21.65;37.60;100821.59;5026529;28;20056;-78
2021/10/30 08:07:36;;;;;;;8.85;6.28;;;;;;;21.79;37.82;100831.66;5029643;28;20529;-80
2021/10/30 08:10:05;;;;;;;9.68;6.05;;;;;;;21.33;36.81;100832.47;5028938;28;20041;-74
2021/10/30 08:12:32;;;;;;;8.13;5.70;;;;;;;21.26;38.70;100828.34;4999860;28;20053;-75
2021/10/30 08:14:59;;;;;;;6.95;5.80;;;;;;;20.92;36.94;100837.50;5027944;28;20094;-78
2021/10/30 08:17:25;;;;;;;7.50;6.20;;;;;;;20.39;39.76;100823.44;5026262;28;20501;-74
2021/10/30 08:19:51;;;;;;;9.73;5.93;;;;;;;20.96;38.42;100838.28;5025257;28;20045;-74
2021/10/30 08:22:29;;;;;;;8.85;5.68;;;;;;;21.65;37.32;100835.72;5030407;28;20033;-77
2021/10/30 08:24:55;;;;;;;9.25;5.97;;;;;;;21.03;38.35;100848.59;5031314;28;20047;-76
2021/10/30 08:27:21;;;;;;;9.95;6.10;;;;;;;20.52;39.71;100842.41;5023418;28;20076;-76
2021/10/30 08:29:47;;;;;;;8.68;5.90;;;;;;;21.20;39.91;100847.09;5014652;28;20073;-75
2021/10/30 08:32:13;;;;;;;9.73;5.88;;;;;;;21.55;38.21;100839.59;5027200;28;20078;-76
2021/10/30 08:34:39;;;;;;;9.57;5.68;;;;;;;21.44;38.22;100828.59;5026287;28;20037;-77
2021/10/30 08:37:06;;;;;;;8.75;5.70;;;;;;;21.22;38.16;100824.09;5023843;28;20050;-74
2021/10/30 08:39:34;;;;;;;7.63;5.78;;;;;;;20.90;38.26;100837.59;5023383;28;20323;-77
2021/10/30 08:42:00;;;;;;;9.07;6.00;;;;;;;22.12;38.84;100855.09;5026028;28;20052;-80
2021/10/30 08:44:26;;;;;;;8.68;5.70;;;;;;;23.56;36.77;100830.34;5015942;28;20099;-78
2021/10/30 08:46:53;;;;;;;7.65;5.57;;;;;;;24.99;35.47;100841.94;5013367;28;20405;-72
2021/10/30 08:49:20;;;;;;;7.70;5.45;;;;;;;25.68;33.53;100832.03;5029344;28;20038;-77
2021/10/30 08:51:58;;;;;;;9.45;5.80;;;;;;;26.12;32.45;100835.81;4997798;28;20045;-74
2021/10/30 08:54:33;;;;;;;9.52;6.13;;;;;;;26.48;31.52;100815.06;5025031;28;20053;-79
2021/10/30 08:57:00;;;;;;;12.82;6.55;;;;;;;26.84;31.06;100839.63;5026786;28;20129;-75
2021/10/30 08:59:41;;;;;;;11.20;5.40;;;;;;;27.39;30.17;100832.63;5027448;28;20061;-75
2021/10/30 09:02:09;;;;;;;9.02;5.57;;;;;;;27.35;30.27;100840.00;5028990;28;20508;-73
2021/10/30 09:04:36;;;;;;;7.55;5.00;;;;;;;27.67;28.66;100825.56;5029098;28;20107;-77
2021/10/30 09:07:06;;;;;;;8.90;5.63;;;;;;;26.52;29.52;100837.06;5025908;28;20132;-76
2021/10/30 09:09:31;;;;;;;8.50;5.10;;;;;;;25.44;30.53;100847.56;5028559;28;20156;-76
2021/10/30 09:12:00;;;;;;;10.35;5.53;;;;;;;24.89;31.43;100830.06;5024444;28;20124;-73
2021/10/30 09:14:28;;;;;;;5.75;5.15;;;;;;;25.04;32.55;100841.72;5026191;28;20042;-77
2021/10/30 09:17:11;;;;;;;9.75;5.43;;;;;;;24.57;32.42;100808.63;5024241;28;20091;-74
2021/10/30 09:19:50;;;;;;;6.72;5.40;;;;;;;25.14;32.34;100842.94;5026487;28;20359;-73
2021/10/30 09:22:17;;;;;;;7.18;5.50;;;;;;;25.51;31.52;100829.44;5024074;28;20106;-77
2021/10/30 09:25:03;;;;;;;7.35;5.25;;;;;;;25.92;31.04;100836.91;5028911;28;20105;-80
2021/10/30 09:27:53;;;;;;;7.47;5.40;;;;;;;25.33;30.56;100840.16;5028437;28;20820;-78
2021/10/30 09:30:29;;;;;;;7.82;5.10;;;;;;;25.10;32.10;100833.38;5028137;28;20061;-77
2021/10/30 09:33:10;;;;;;;7.93;5.13;;;;;;;25.45;31.42;100830.66;5031036;28;20076;-77
2021/10/30 09:35:44;;;;;;;8.88;5.50;;;;;;;25.28;31.98;100828.88;5026420;28;20094;-78
2021/10/30 09:38:32;;;;;;;6.63;5.25;;;;;;;25.78;30.25;100829.69;5013320;28;20037;-77
2021/10/30 09:41:03;;;;;;;7.40;5.10;;;;;;;25.62;29.48;100827.03;5034358;28;20539;-78
2021/10/30 09:43:29;;;;;;;;;;;;;;;25.07;30.99;100833.53;5032842;28;20041;-78
2021/10/30 09:46:04;;;;;;;4.95;4.40;;;;;;;25.07;31.87;100839.75;5031094;28;19923;-79
2021/10/30 09:48:32;;;;;;;6.10;5.18;;;;;;;25.39;30.69;100818.47;5029372;28;20065;-78
2021/10/30 09:51:02;;;;;;;7.95;5.53;;;;;;;24.87;30.43;100835.47;5018670;28;20041;-80
2021/10/30 09:53:33;;;;;;;9.30;5.18;;;;;;;22.92;32.68;100844.72;5046070;28;20032;-77
2021/10/30 09:56:04;;;;;;;9.07;5.50;;;;;;;21.60;33.94;100842.94;5037130;28;20102;-78
2021/10/30 09:58:33;;;;;;;9.75;5.90;;;;;;;20.67;35.63;100845.41;5036667;28;20041;-77
2021/10/30 10:01:02;;;;;;;10.32;5.90;;;;;;;19.92;37.45;100846.97;5039989;28;20034;-79
2021/10/30 10:03:30;;;;;;;6.15;5.25;;;;;;;19.21;38.31;100853.41;5046854;28;20049;-77
2021/10/30 10:05:59;;;;;;;8.02;5.28;;;;;;;18.63;39.30;100854.06;5046629;28;20037;-77
2021/10/30 10:08:26;;;;;;;6.65;5.18;;;;;;;18.19;40.58;100853.38;5039928;28;20048;-78
2021/10/30 10:10:55;;;;;;;7.18;5.60;;;;;;;17.79;41.63;100851.63;5032022;28;20034;-78
2021/10/30 10:13:24;;;;;;;6.30;5.60;;;;;;;17.40;42.23;100831.41;5033126;28;20052;-77
2021/10/30 10:15:51;;;;;;;8.30;5.28;;;;;;;17.11;42.80;100819.72;5022519;28;20042;-78
2021/10/30 10:18:20;;;;;;;8.38;5.90;;;;;;;17.13;43.62;100852.97;5031096;28;20065;-80
2021/10/30 10:20:46;;;;;;;14.27;5.95;;;;;;;16.80;44.04;100830.75;5030430;28;20033;-80
2021/10/30 10:23:21;;;;;;;8.27;5.30;;;;;;;16.55;44.61;100832.09;5022009;28;20513;-78
2021/10/30 10:25:51;;;;;;;10.40;5.85;;;;;;;16.55;45.13;100837.34;5011641;28;20038;-77
2021/10/30 10:28:24;;;;;;;10.63;5.57;;;;;;;16.46;45.50;100863.75;5027900;28;20037;-77
2021/10/30 10:31:04;;;;;;;7.95;5.50;;;;;;;16.24;45.73;100853.59;5026692;28;20054;-78
2021/10/30 10:33:31;;;;;;;10.25;5.32;;;;;;;16.08;46.00;100859.97;5022769;28;20054;-80
2021/10/30 10:36:16;;;;;;;10.85;5.22;;;;;;;15.86;46.92;100854.19;5024222;28;20444;-82
2021/10/30 10:38:57;;;;;;;6.32;5.38;;;;;;;15.85;47.29;100855.88;5024854;28;20050;-76
2021/10/30 10:41:44;;;;;;;7.93;5.70;;;;;;;15.80;47.33;100862.94;5026141;28;20048;-77
2021/10/30 10:44:11;;;;;;;7.75;5.60;;;;;;;15.58;47.32;100846.66;5008542;28;20741;-78
2021/10/30 10:46:53;;;;;;;8.80;5.80;;;;;;;15.46;48.20;100855.53;5027040;28;20048;-76
2021/10/30 10:52:17;;;;;;;9.93;5.85;;;;;;;15.08;48.66;100841.97;5033279;28;20041;-77
2021/10/30 10:54:55;;;;;;;11.68;5.50;;;;;;;15.08;49.13;100852.47;5034186;28;20132;-77
2021/10/30 10:57:28;;;;;;;9.65;5.70;;;;;;;14.84;49.40;100824.78;5039208;28;20037;-79
2021/10/30 11:00:12;;;;;;;10.18;5.80;;;;;;;14.98;49.67;100856.09;5034601;28;20038;-76
2021/10/30 11:02:40;;;;;;;11.90;6.15;;;;;;;15.00;50.00;100852.56;5027535;28;20049;-79
2021/10/30 11:05:08;;;;;;;9.50;5.40;;;;;;;14.90;50.15;100857.03;5030811;28;20041;-78
2021/10/30 11:07:37;;;;;;;8.20;5.47;;;;;;;14.83;50.30;100846.63;5029599;28;20048;-78
2021/10/30 11:10:15;;;;;;;11.63;5.50;;;;;;;14.62;50.71;100835.44;5031824;28;20041;-78
2021/10/30 11:13:02;;;;;;;8.07;5.70;;;;;;;14.59;50.81;100853.78;5036100;28;20037;-77
2021/10/30 11:15:49;;;;;;;7.55;5.05;;;;;;;14.48;51.29;100851.25;5046126;28;20159;-79
2021/10/30 11:18:21;;;;;;;13.52;6.03;;;;;;;14.48;51.26;100853.00;5026666;28;20121;-78
2021/10/30 11:21:05;;;;;;;13.38;5.65;;;;;;;14.39;51.80;100856.56;4998371;28;20041;-78
2021/10/30 11:23:33;;;;;;;7.30;5.55;;;;;;;14.24;51.80;100832.25;5012335;28;20049;-75
2021/10/30 11:26:29;;;;;;;7.13;5.80;;;;;;;14.15;52.32;100848.00;5015103;28;20048;-75
2021/10/30 11:29:07;;;;;;;8.68;6.13;;;;;;;14.11;52.55;100856.78;4993205;28;20092;-77
2021/10/30 11:31:34;;;;;;;8.88;6.03;;;;;;;13.95;52.72;100829.84;5026580;28;20053;-77
2021/10/30 11:34:15;;;;;;;11.50;6.90;;;;;;;14.05;53.03;100852.44;5036277;28;20126;-77